Flight Track Log - Related Links

Times and Time Zones

All times are in EDT time to prevent confusion due to time zone crossing. See the ASQ5678 flight status page for this flight to view local times or setup timezone preferences in your user account.

Time Position Orientation Groundspeed Altitude Reporting Facility
EDT Latitude Longitude Course Direction KTS MPH feet Rate Location/Type
Thu 02:04:47 PM 29.9639 -95.3433 90° East 167 192 600  Level Houston Center
Thu 02:06:19 PM 29.9103 -95.2753 132° Southeast 220 253 3,100 1,511 Climbing Houston Center
Thu 02:07:02 PM 29.8658 -95.2153 130° Southeast 278 320 4,000 1,745 Climbing Houston Center
Thu 02:08:09 PM 29.8183 -95.1319 123° Southeast 284 327 6,300 2,203 Climbing Houston Center
Thu 02:09:00 PM 29.9834 -94.8065 90° East  Level FlightAware
Thu 02:09:10 PM 29.8094 -95.0392 96° East 286 329 8,700  Level Houston Center
Thu 02:10:00 PM 29.9834 -94.7011 90° East  Level FlightAware
Thu 02:10:11 PM 29.8325 -94.9472 74° East 295 339 10,700  Level Houston Center
Thu 02:11:06 PM 29.8536 -94.8603 74° East 323 372 12,100 1,457 Climbing Houston Center
Thu 02:12:31 PM 29.8883 -94.7256 73° East 332 382 14,100 1,388 Climbing Houston Center
Thu 02:13:33 PM 29.9156 -94.6175 74° East 345 397 15,500 1,210 Climbing Houston Center
Thu 02:14:35 PM 29.9444 -94.5072 73° East 355 409 16,600 1,403 Climbing Houston Center
Thu 02:15:37 PM 29.9778 -94.3803 73° East 358 412 18,400 1,210 Climbing Houston Center
Thu 02:16:39 PM 30.0036 -94.2697 75° East 356 410 19,100 726 Climbing Houston Center
Thu 02:17:41 PM 30.0172 -94.1472 83° East 376 433 19,900 726 Climbing Houston Center
Thu 02:18:43 PM 30.0319 -94.0200 82° East 394 453 20,600 532 Climbing Houston Center
Thu 02:19:45 PM 30.0769 -93.8683 71° East 413 475 21,000 192 Climbing Houston Center
Thu 02:20:48 PM 30.1183 -93.7328 71° East 434 499 21,000  Level Houston Center
Thu 02:21:50 PM 30.1581 -93.6000 71° East 450 518 21,000  Level Houston Center
Thu 02:22:52 PM 30.1975 -93.4656 71° East 451 519 21,000 -242 Level Houston Center
Thu 02:23:54 PM 30.2486 -93.3039 70° East 451 519 20,500 -1,694 Descending Houston Center
Thu 02:24:56 PM 30.2900 -93.1764 69° East 440 506 17,500 -2,903 Descending Houston Center
Thu 02:25:58 PM 30.3133 -93.0506 78° East 409 471 14,500 -2,903 Descending Houston Center
Thu 02:27:00 PM 30.3025 -92.9228 96° East 400 460 11,500 -1,694 Descending Houston Center
Thu 02:28:02 PM 30.2892 -92.8000 97° East 390 449 11,000 -432 Descending Houston Center
Thu 02:29:05 PM 30.2733 -92.6639 98° East 351 404 10,600 -1,056 Descending Houston Center
Thu 02:30:07 PM 30.2622 -92.5653 97° East 323 372 8,800 -1,984 Descending Houston Center
Thu 02:31:09 PM 30.2517 -92.4744 98° East 304 350 6,500 -1,935 Descending Houston Center
Thu 02:32:11 PM 30.2192 -92.3969 116° Southeast 283 326 4,800 -1,403 Descending Houston Center
Thu 02:33:13 PM 30.1772 -92.3272 125° Southeast 273 314 3,600 -1,065 Descending Houston Center
Thu 02:34:15 PM 30.1358 -92.2600 125° Southeast 264 304 2,600 -864 Descending Houston Center
Thu 02:35:18 PM 30.0881 -92.1797 125° Southeast 259 298 1,800 -384 Descending Houston Center
Thu 02:36:20 PM 30.0469 -92.1147 126° Southeast 258 297 1,800  Level Houston Center

Login

Don't have an account? Register now (free) for customized features, flight alerts, and more!